sensor_id;sensor_type;location;lat;lon;timestamp;temperature;humidity
8067;DHT22;4076;48.076;9.118;2023-04-27T00:02:25;7.20;99.90
8067;DHT22;4076;48.076;9.118;2023-04-27T00:04:50;7.10;99.90
8067;DHT22;4076;48.076;9.118;2023-04-27T00:07:16;7.20;99.90
8067;DHT22;4076;48.076;9.118;2023-04-27T00:09:42;7.20;99.90
8067;DHT22;4076;48.076;9.118;2023-04-27T00:12:07;7.20;99.90
8067;DHT22;4076;48.076;9.118;2023-04-27T00:14:33;7.30;99.90
8067;DHT22;4076;48.076;9.118;2023-04-27T00:16:58;7.30;99.90
8067;DHT22;4076;48.076;9.118;2023-04-27T00:19:24;7.30;99.90
8067;DHT22;4076;48.076;9.118;2023-04-27T00:21:49;7.20;99.90
8067;DHT22;4076;48.076;9.118;2023-04-27T00:24:15;7.20;99.90
8067;DHT22;4076;48.076;9.118;2023-04-27T00:26:41;7.20;99.90
8067;DHT22;4076;48.076;9.118;2023-04-27T00:29:07;7.10;99.90
8067;DHT22;4076;48.076;9.118;2023-04-27T00:31:32;7.10;99.90
8067;DHT22;4076;48.076;9.118;2023-04-27T00:33:58;7.10;99.90
8067;DHT22;4076;48.076;9.118;2023-04-27T00:36:23;7.00;99.90
8067;DHT22;4076;48.076;9.118;2023-04-27T00:38:49;7.10;99.90
8067;DHT22;4076;48.076;9.118;2023-04-27T00:41:14;7.10;99.90
8067;DHT22;4076;48.076;9.118;2023-04-27T00:43:44;7.10;99.90
8067;DHT22;4076;48.076;9.118;2023-04-27T00:46:13;7.10;99.90
8067;DHT22;4076;48.076;9.118;2023-04-27T00:48:40;7.10;99.90
8067;DHT22;4076;48.076;9.118;2023-04-27T00:51:06;7.10;99.90
8067;DHT22;4076;48.076;9.118;2023-04-27T00:53:32;7.10;99.90
8067;DHT22;4076;48.076;9.118;2023-04-27T00:55:58;7.10;99.90
8067;DHT22;4076;48.076;9.118;2023-04-27T00:58:24;7.10;99.90
8067;DHT22;4076;48.076;9.118;2023-04-27T01:00:50;7.10;99.90
8067;DHT22;4076;48.076;9.118;2023-04-27T01:03:16;7.00;99.90
8067;DHT22;4076;48.076;9.118;2023-04-27T01:05:42;7.00;99.90
8067;DHT22;4076;48.076;9.118;2023-04-27T01:08:08;6.90;99.90
8067;DHT22;4076;48.076;9.118;2023-04-27T01:10:34;6.80;99.90
8067;DHT22;4076;48.076;9.118;2023-04-27T01:13:00;6.80;99.90
8067;DHT22;4076;48.076;9.118;2023-04-27T01:15:26;6.80;99.90
8067;DHT22;4076;48.076;9.118;2023-04-27T01:17:58;6.70;99.90
8067;DHT22;4076;48.076;9.118;2023-04-27T01:20:25;6.60;99.90
8067;DHT22;4076;48.076;9.118;2023-04-27T01:22:55;6.60;99.90
8067;DHT22;4076;48.076;9.118;2023-04-27T01:25:20;6.50;99.90
8067;DHT22;4076;48.076;9.118;2023-04-27T01:27:46;6.40;99.90
8067;DHT22;4076;48.076;9.118;2023-04-27T01:30:11;6.40;99.90
8067;DHT22;4076;48.076;9.118;2023-04-27T01:32:37;6.30;99.90
8067;DHT22;4076;48.076;9.118;2023-04-27T01:35:04;6.40;99.90
8067;DHT22;4076;48.076;9.118;2023-04-27T01:37:30;6.30;99.90
8067;DHT22;4076;48.076;9.118;2023-04-27T01:39:55;6.30;99.90
8067;DHT22;4076;48.076;9.118;2023-04-27T01:42:21;6.20;99.90
8067;DHT22;4076;48.076;9.118;2023-04-27T01:44:47;6.20;99.90
8067;DHT22;4076;48.076;9.118;2023-04-27T01:47:14;6.20;99.90
8067;DHT22;4076;48.076;9.118;2023-04-27T01:49:40;6.20;99.90
8067;DHT22;4076;48.076;9.118;2023-04-27T01:52:06;6.20;99.90
8067;DHT22;4076;48.076;9.118;2023-04-27T01:54:31;6.30;99.90
8067;DHT22;4076;48.076;9.118;2023-04-27T01:56:57;6.30;99.90
8067;DHT22;4076;48.076;9.118;2023-04-27T01:59:23;6.30;99.90
8067;DHT22;4076;48.076;9.118;2023-04-27T02:01:48;6.30;99.90
8067;DHT22;4076;48.076;9.118;2023-04-27T02:04:14;6.20;99.90
8067;DHT22;4076;48.076;9.118;2023-04-27T02:06:39;6.20;99.90
8067;DHT22;4076;48.076;9.118;2023-04-27T02:09:05;6.30;99.90
8067;DHT22;4076;48.076;9.118;2023-04-27T02:11:31;6.40;99.90
8067;DHT22;4076;48.076;9.118;2023-04-27T02:13:57;6.40;99.90
8067;DHT22;4076;48.076;9.118;2023-04-27T02:16:22;6.40;99.90
8067;DHT22;4076;48.076;9.118;2023-04-27T02:18:48;6.50;99.90
8067;DHT22;4076;48.076;9.118;2023-04-27T02:21:13;6.60;99.90
8067;DHT22;4076;48.076;9.118;2023-04-27T02:23:39;6.60;99.90
8067;DHT22;4076;48.076;9.118;2023-04-27T02:26:05;6.70;99.90
8067;DHT22;4076;48.076;9.118;2023-04-27T02:28:31;6.70;99.90
8067;DHT22;4076;48.076;9.118;2023-04-27T02:30:57;6.70;99.90
8067;DHT22;4076;48.076;9.118;2023-04-27T02:33:23;6.70;99.90
8067;DHT22;4076;48.076;9.118;2023-04-27T02:35:48;6.70;99.90
8067;DHT22;4076;48.076;9.118;2023-04-27T02:38:14;6.80;99.90
8067;DHT22;4076;48.076;9.118;2023-04-27T02:40:40;6.80;99.90
8067;DHT22;4076;48.076;9.118;2023-04-27T02:43:06;6.80;99.90
8067;DHT22;4076;48.076;9.118;2023-04-27T02:45:36;6.80;99.90
8067;DHT22;4076;48.076;9.118;2023-04-27T02:48:02;6.90;99.90
8067;DHT22;4076;48.076;9.118;2023-04-27T02:50:28;6.90;99.90
8067;DHT22;4076;48.076;9.118;2023-04-27T02:52:53;6.90;99.90
8067;DHT22;4076;48.076;9.118;2023-04-27T02:55:19;6.80;99.90
8067;DHT22;4076;48.076;9.118;2023-04-27T02:57:45;6.80;99.90
8067;DHT22;4076;48.076;9.118;2023-04-27T03:00:12;6.80;99.90
8067;DHT22;4076;48.076;9.118;2023-04-27T03:02:37;6.80;99.90
8067;DHT22;4076;48.076;9.118;2023-04-27T03:05:03;6.80;99.90
8067;DHT22;4076;48.076;9.118;2023-04-27T03:07:29;6.80;99.90
8067;DHT22;4076;48.076;9.118;2023-04-27T03:09:56;6.80;99.90
8067;DHT22;4076;48.076;9.118;2023-04-27T03:12:21;6.80;99.90
8067;DHT22;4076;48.076;9.118;2023-04-27T03:14:47;6.80;99.90
8067;DHT22;4076;48.076;9.118;2023-04-27T03:17:12;6.90;99.90
8067;DHT22;4076;48.076;9.118;2023-04-27T03:19:38;6.90;99.90
8067;DHT22;4076;48.076;9.118;2023-04-27T03:22:03;6.90;99.90
8067;DHT22;4076;48.076;9.118;2023-04-27T03:24:29;6.90;99.90
8067;DHT22;4076;48.076;9.118;2023-04-27T03:26:55;6.80;99.90
8067;DHT22;4076;48.076;9.118;2023-04-27T03:29:20;6.80;99.90
8067;DHT22;4076;48.076;9.118;2023-04-27T03:31:46;6.80;99.90
8067;DHT22;4076;48.076;9.118;2023-04-27T03:34:11;6.80;99.90
8067;DHT22;4076;48.076;9.118;2023-04-27T03:36:37;6.80;99.90
8067;DHT22;4076;48.076;9.118;2023-04-27T03:39:03;6.80;99.90
8067;DHT22;4076;48.076;9.118;2023-04-27T03:41:28;6.80;99.90
8067;DHT22;4076;48.076;9.118;2023-04-27T03:43:54;6.80;99.90
8067;DHT22;4076;48.076;9.118;2023-04-27T03:46:19;6.80;99.90
8067;DHT22;4076;48.076;9.118;2023-04-27T03:48:45;6.80;99.90
8067;DHT22;4076;48.076;9.118;2023-04-27T03:51:11;6.80;99.90
8067;DHT22;4076;48.076;9.118;2023-04-27T03:53:37;6.80;99.90
8067;DHT22;4076;48.076;9.118;2023-04-27T03:56:02;6.80;99.90
8067;DHT22;4076;48.076;9.118;2023-04-27T03:58:28;6.90;99.90
8067;DHT22;4076;48.076;9.118;2023-04-27T04:00:53;6.90;99.90
8067;DHT22;4076;48.076;9.118;2023-04-27T04:03:19;6.80;99.90
8067;DHT22;4076;48.076;9.118;2023-04-27T04:05:45;6.80;99.90
8067;DHT22;4076;48.076;9.118;2023-04-27T04:08:12;6.80;99.90
8067;DHT22;4076;48.076;9.118;2023-04-27T04:10:38;6.80;99.90
8067;DHT22;4076;48.076;9.118;2023-04-27T04:13:03;6.80;99.90
8067;DHT22;4076;48.076;9.118;2023-04-27T04:15:29;6.80;99.90
8067;DHT22;4076;48.076;9.118;2023-04-27T04:17:55;6.80;99.90
8067;DHT22;4076;48.076;9.118;2023-04-27T04:20:20;6.80;99.90
8067;DHT22;4076;48.076;9.118;2023-04-27T04:22:46;6.80;99.90
8067;DHT22;4076;48.076;9.118;2023-04-27T04:25:12;6.80;99.90
8067;DHT22;4076;48.076;9.118;2023-04-27T04:27:38;6.90;99.90
8067;DHT22;4076;48.076;9.118;2023-04-27T04:30:05;6.90;99.90
8067;DHT22;4076;48.076;9.118;2023-04-27T04:32:31;6.80;99.90
8067;DHT22;4076;48.076;9.118;2023-04-27T04:34:58;6.80;99.90
8067;DHT22;4076;48.076;9.118;2023-04-27T04:37:26;6.80;99.90
8067;DHT22;4076;48.076;9.118;2023-04-27T04:39:52;6.80;99.90
8067;DHT22;4076;48.076;9.118;2023-04-27T04:42:17;6.80;99.90
8067;DHT22;4076;48.076;9.118;2023-04-27T04:44:43;6.70;99.90
8067;DHT22;4076;48.076;9.118;2023-04-27T04:47:13;6.80;99.90
8067;DHT22;4076;48.076;9.118;2023-04-27T04:49:44;6.80;99.90
8067;DHT22;4076;48.076;9.118;2023-04-27T04:52:10;6.90;99.90
8067;DHT22;4076;48.076;9.118;2023-04-27T04:54:36;6.90;99.90
8067;DHT22;4076;48.076;9.118;2023-04-27T04:57:01;7.00;99.90
8067;DHT22;4076;48.076;9.118;2023-04-27T04:59:31;7.00;99.90
8067;DHT22;4076;48.076;9.118;2023-04-27T05:01:57;7.00;99.90
8067;DHT22;4076;48.076;9.118;2023-04-27T05:04:22;7.10;99.90
8067;DHT22;4076;48.076;9.118;2023-04-27T05:06:48;7.10;99.90
8067;DHT22;4076;48.076;9.118;2023-04-27T05:09:13;7.20;99.90
8067;DHT22;4076;48.076;9.118;2023-04-27T05:11:39;7.20;99.90
8067;DHT22;4076;48.076;9.118;2023-04-27T05:14:05;7.20;99.90
8067;DHT22;4076;48.076;9.118;2023-04-27T05:16:30;7.30;99.90
8067;DHT22;4076;48.076;9.118;2023-04-27T05:18:56;7.50;99.90
8067;DHT22;4076;48.076;9.118;2023-04-27T05:21:22;7.60;99.90
8067;DHT22;4076;48.076;9.118;2023-04-27T05:23:47;7.70;99.90
8067;DHT22;4076;48.076;9.118;2023-04-27T05:26:14;7.80;99.90
8067;DHT22;4076;48.076;9.118;2023-04-27T05:28:40;8.10;99.90
8067;DHT22;4076;48.076;9.118;2023-04-27T05:31:06;8.40;99.90
8067;DHT22;4076;48.076;9.118;2023-04-27T05:33:32;8.70;99.90
8067;DHT22;4076;48.076;9.118;2023-04-27T05:35:58;9.00;99.90
8067;DHT22;4076;48.076;9.118;2023-04-27T05:38:24;9.10;99.90
8067;DHT22;4076;48.076;9.118;2023-04-27T05:40:57;9.20;99.90
8067;DHT22;4076;48.076;9.118;2023-04-27T05:43:23;9.30;99.90
8067;DHT22;4076;48.076;9.118;2023-04-27T05:45:49;9.30;99.90
8067;DHT22;4076;48.076;9.118;2023-04-27T05:48:15;9.30;99.90
8067;DHT22;4076;48.076;9.118;2023-04-27T05:50:41;9.20;99.90
8067;DHT22;4076;48.076;9.118;2023-04-27T05:53:06;9.10;99.90
8067;DHT22;4076;48.076;9.118;2023-04-27T05:55:32;9.10;99.90
8067;DHT22;4076;48.076;9.118;2023-04-27T05:57:58;9.00;99.90
8067;DHT22;4076;48.076;9.118;2023-04-27T06:00:23;9.00;99.90
8067;DHT22;4076;48.076;9.118;2023-04-27T06:02:49;9.00;99.90
8067;DHT22;4076;48.076;9.118;2023-04-27T06:05:15;9.00;99.90
8067;DHT22;4076;48.076;9.118;2023-04-27T06:07:40;9.00;99.90
8067;DHT22;4076;48.076;9.118;2023-04-27T06:10:08;9.00;99.90
8067;DHT22;4076;48.076;9.118;2023-04-27T06:12:34;9.00;99.90
8067;DHT22;4076;48.076;9.118;2023-04-27T06:15:00;8.90;99.90
8067;DHT22;4076;48.076;9.118;2023-04-27T06:17:34;8.80;99.90
8067;DHT22;4076;48.076;9.118;2023-04-27T06:20:00;8.80;99.90
8067;DHT22;4076;48.076;9.118;2023-04-27T06:22:26;8.80;99.90
8067;DHT22;4076;48.076;9.118;2023-04-27T06:24:51;8.70;99.90
8067;DHT22;4076;48.076;9.118;2023-04-27T06:27:17;8.70;99.90
8067;DHT22;4076;48.076;9.118;2023-04-27T06:29:42;8.80;99.90
8067;DHT22;4076;48.076;9.118;2023-04-27T06:32:08;8.80;99.90
8067;DHT22;4076;48.076;9.118;2023-04-27T06:34:34;8.90;99.90
8067;DHT22;4076;48.076;9.118;2023-04-27T06:36:59;9.00;99.90
8067;DHT22;4076;48.076;9.118;2023-04-27T06:39:25;9.10;99.90
8067;DHT22;4076;48.076;9.118;2023-04-27T06:41:51;9.30;99.90
8067;DHT22;4076;48.076;9.118;2023-04-27T06:44:16;9.50;99.90
8067;DHT22;4076;48.076;9.118;2023-04-27T06:46:42;9.70;99.90
8067;DHT22;4076;48.076;9.118;2023-04-27T06:49:07;9.90;99.90
8067;DHT22;4076;48.076;9.118;2023-04-27T06:51:33;10.20;99.90
8067;DHT22;4076;48.076;9.118;2023-04-27T06:53:59;10.60;99.90
8067;DHT22;4076;48.076;9.118;2023-04-27T06:56:24;11.20;99.90
8067;DHT22;4076;48.076;9.118;2023-04-27T06:58:50;11.70;99.90
8067;DHT22;4076;48.076;9.118;2023-04-27T07:01:15;12.40;99.90
8067;DHT22;4076;48.076;9.118;2023-04-27T07:03:41;13.20;97.30
8067;DHT22;4076;48.076;9.118;2023-04-27T07:06:07;14.30;84.40
8067;DHT22;4076;48.076;9.118;2023-04-27T07:08:32;14.80;73.80
8067;DHT22;4076;48.076;9.118;2023-04-27T07:10:58;15.10;69.40
8067;DHT22;4076;48.076;9.118;2023-04-27T07:13:23;15.40;64.10
8067;DHT22;4076;48.076;9.118;2023-04-27T07:15:54;15.60;61.80
8067;DHT22;4076;48.076;9.118;2023-04-27T07:18:22;15.70;57.20
8067;DHT22;4076;48.076;9.118;2023-04-27T07:20:47;15.90;55.90
8067;DHT22;4076;48.076;9.118;2023-04-27T07:23:13;15.90;54.70
8067;DHT22;4076;48.076;9.118;2023-04-27T07:25:39;15.80;56.50
8067;DHT22;4076;48.076;9.118;2023-04-27T07:28:04;15.40;54.40
8067;DHT22;4076;48.076;9.118;2023-04-27T07:30:30;14.90;54.90
8067;DHT22;4076;48.076;9.118;2023-04-27T07:32:55;14.60;55.80
8067;DHT22;4076;48.076;9.118;2023-04-27T07:35:21;14.40;55.90
8067;DHT22;4076;48.076;9.118;2023-04-27T07:37:47;14.30;56.20
8067;DHT22;4076;48.076;9.118;2023-04-27T07:40:13;14.30;56.20
8067;DHT22;4076;48.076;9.118;2023-04-27T07:42:41;14.70;57.00
8067;DHT22;4076;48.076;9.118;2023-04-27T07:45:10;15.50;55.70
8067;DHT22;4076;48.076;9.118;2023-04-27T07:47:36;16.10;55.00
8067;DHT22;4076;48.076;9.118;2023-04-27T07:50:02;16.50;53.60
8067;DHT22;4076;48.076;9.118;2023-04-27T07:52:28;17.50;54.50
8067;DHT22;4076;48.076;9.118;2023-04-27T07:54:54;19.10;50.20
8067;DHT22;4076;48.076;9.118;2023-04-27T07:57:20;20.50;48.40
8067;DHT22;4076;48.076;9.118;2023-04-27T07:59:45;20.90;47.50
8067;DHT22;4076;48.076;9.118;2023-04-27T08:02:11;21.20;45.00
8067;DHT22;4076;48.076;9.118;2023-04-27T08:04:37;22.20;46.10
8067;DHT22;4076;48.076;9.118;2023-04-27T08:07:03;24.00;45.10
8067;DHT22;4076;48.076;9.118;2023-04-27T08:09:29;25.80;38.80
8067;DHT22;4076;48.076;9.118;2023-04-27T08:11:56;26.70;36.10
8067;DHT22;4076;48.076;9.118;2023-04-27T08:14:22;26.60;35.00
8067;DHT22;4076;48.076;9.118;2023-04-27T08:16:48;26.80;35.30
8067;DHT22;4076;48.076;9.118;2023-04-27T08:19:13;28.20;34.00
8067;DHT22;4076;48.076;9.118;2023-04-27T08:21:39;30.00;32.50
8067;DHT22;4076;48.076;9.118;2023-04-27T08:24:05;31.50;30.50
8067;DHT22;4076;48.076;9.118;2023-04-27T08:28:58;33.60;27.50
8067;DHT22;4076;48.076;9.118;2023-04-27T08:31:24;33.60;27.00
8067;DHT22;4076;48.076;9.118;2023-04-27T08:33:51;34.30;26.90
8067;DHT22;4076;48.076;9.118;2023-04-27T08:36:20;35.10;25.40
8067;DHT22;4076;48.076;9.118;2023-04-27T08:38:49;33.60;25.50
8067;DHT22;4076;48.076;9.118;2023-04-27T08:41:22;31.40;26.70
8067;DHT22;4076;48.076;9.118;2023-04-27T08:43:48;30.00;28.30
8067;DHT22;4076;48.076;9.118;2023-04-27T08:46:21;30.60;28.40
8067;DHT22;4076;48.076;9.118;2023-04-27T08:48:52;31.90;27.40
8067;DHT22;4076;48.076;9.118;2023-04-27T08:51:18;31.00;27.60
8067;DHT22;4076;48.076;9.118;2023-04-27T08:53:52;30.50;27.70
8067;DHT22;4076;48.076;9.118;2023-04-27T08:56:19;29.70;28.40
8067;DHT22;4076;48.076;9.118;2023-04-27T08:58:47;30.90;29.10
8067;DHT22;4076;48.076;9.118;2023-04-27T09:01:13;32.30;27.30
8067;DHT22;4076;48.076;9.118;2023-04-27T09:03:38;32.60;26.70
8067;DHT22;4076;48.076;9.118;2023-04-27T09:06:05;33.60;26.60
8067;DHT22;4076;48.076;9.118;2023-04-27T09:08:49;35.00;26.50
8067;DHT22;4076;48.076;9.118;2023-04-27T09:11:30;35.90;25.30
8067;DHT22;4076;48.076;9.118;2023-04-27T09:13:57;36.50;24.50
8067;DHT22;4076;48.076;9.118;2023-04-27T09:16:24;33.40;25.10
8067;DHT22;4076;48.076;9.118;2023-04-27T09:18:51;30.30;26.90
8067;DHT22;4076;48.076;9.118;2023-04-27T09:21:28;27.70;28.40
8067;DHT22;4076;48.076;9.118;2023-04-27T09:23:55;26.00;29.80
8067;DHT22;4076;48.076;9.118;2023-04-27T09:26:23;24.70;32.00
8067;DHT22;4076;48.076;9.118;2023-04-27T09:28:51;23.50;32.60
8067;DHT22;4076;48.076;9.118;2023-04-27T09:31:17;22.80;34.20
8067;DHT22;4076;48.076;9.118;2023-04-27T09:33:44;22.60;34.50
8067;DHT22;4076;48.076;9.118;2023-04-27T09:36:12;22.70;34.70
8067;DHT22;4076;48.076;9.118;2023-04-27T09:38:38;22.50;34.80
8067;DHT22;4076;48.076;9.118;2023-04-27T09:41:04;22.20;34.90
8067;DHT22;4076;48.076;9.118;2023-04-27T09:43:32;21.80;35.90
8067;DHT22;4076;48.076;9.118;2023-04-27T09:45:58;21.20;37.20
8067;DHT22;4076;48.076;9.118;2023-04-27T09:48:24;20.60;36.90
8067;DHT22;4076;48.076;9.118;2023-04-27T09:50:51;20.00;38.20
8067;DHT22;4076;48.076;9.118;2023-04-27T09:53:29;19.30;38.90
8067;DHT22;4076;48.076;9.118;2023-04-27T10:01:47;18.80;41.80
8067;DHT22;4076;48.076;9.118;2023-04-27T10:07:07;19.60;41.20
8067;DHT22;4076;48.076;9.118;2023-04-27T10:09:36;20.10;41.10
8067;DHT22;4076;48.076;9.118;2023-04-27T10:14:59;19.70;39.90
8067;DHT22;4076;48.076;9.118;2023-04-27T10:17:32;19.40;40.90
8067;DHT22;4076;48.076;9.118;2023-04-27T10:20:00;19.00;41.20
8067;DHT22;4076;48.076;9.118;2023-04-27T10:22:42;18.50;41.10
8067;DHT22;4076;48.076;9.118;2023-04-27T10:25:28;18.10;41.40
8067;DHT22;4076;48.076;9.118;2023-04-27T10:27:55;17.90;41.50
8067;DHT22;4076;48.076;9.118;2023-04-27T10:30:24;17.80;42.90
8067;DHT22;4076;48.076;9.118;2023-04-27T10:32:58;17.60;42.50
8067;DHT22;4076;48.076;9.118;2023-04-27T10:35:36;17.80;43.20
8067;DHT22;4076;48.076;9.118;2023-04-27T10:38:09;18.00;43.70
8067;DHT22;4076;48.076;9.118;2023-04-27T10:40:35;18.20;42.90
8067;DHT22;4076;48.076;9.118;2023-04-27T10:43:14;18.50;42.50
8067;DHT22;4076;48.076;9.118;2023-04-27T10:45:41;18.80;42.30
8067;DHT22;4076;48.076;9.118;2023-04-27T10:48:07;19.00;42.40
8067;DHT22;4076;48.076;9.118;2023-04-27T10:50:33;19.10;42.40
8067;DHT22;4076;48.076;9.118;2023-04-27T10:53:01;19.30;41.00
8067;DHT22;4076;48.076;9.118;2023-04-27T10:55:28;19.40;41.80
8067;DHT22;4076;48.076;9.118;2023-04-27T10:57:55;19.50;41.30
8067;DHT22;4076;48.076;9.118;2023-04-27T11:00:30;19.40;40.70
8067;DHT22;4076;48.076;9.118;2023-04-27T11:03:09;19.10;40.60
8067;DHT22;4076;48.076;9.118;2023-04-27T11:05:36;18.80;40.80
8067;DHT22;4076;48.076;9.118;2023-04-27T11:08:12;18.60;41.60
8067;DHT22;4076;48.076;9.118;2023-04-27T11:10:43;18.40;41.80
8067;DHT22;4076;48.076;9.118;2023-04-27T11:13:24;18.40;42.20
8067;DHT22;4076;48.076;9.118;2023-04-27T11:15:51;18.40;43.40
8067;DHT22;4076;48.076;9.118;2023-04-27T11:18:20;18.50;42.00
8067;DHT22;4076;48.076;9.118;2023-04-27T11:20:48;18.50;42.30
8067;DHT22;4076;48.076;9.118;2023-04-27T11:23:28;18.50;42.60
8067;DHT22;4076;48.076;9.118;2023-04-27T11:25:55;18.60;42.30
8067;DHT22;4076;48.076;9.118;2023-04-27T11:28:22;18.50;42.30
8067;DHT22;4076;48.076;9.118;2023-04-27T11:30:55;18.30;43.10
8067;DHT22;4076;48.076;9.118;2023-04-27T11:33:21;18.10;42.90
8067;DHT22;4076;48.076;9.118;2023-04-27T11:35:47;17.90;42.90
8067;DHT22;4076;48.076;9.118;2023-04-27T11:38:17;17.60;42.60
8067;DHT22;4076;48.076;9.118;2023-04-27T11:40:46;17.40;43.50
8067;DHT22;4076;48.076;9.118;2023-04-27T11:43:12;17.30;43.30
8067;DHT22;4076;48.076;9.118;2023-04-27T11:45:43;17.20;43.60
8067;DHT22;4076;48.076;9.118;2023-04-27T11:48:15;17.20;43.40
8067;DHT22;4076;48.076;9.118;2023-04-27T11:50:47;17.20;43.90
8067;DHT22;4076;48.076;9.118;2023-04-27T11:53:13;17.30;44.80
8067;DHT22;4076;48.076;9.118;2023-04-27T11:55:38;17.40;45.60
8067;DHT22;4076;48.076;9.118;2023-04-27T11:58:06;17.60;44.80
8067;DHT22;4076;48.076;9.118;2023-04-27T12:00:37;17.80;45.20
8067;DHT22;4076;48.076;9.118;2023-04-27T12:03:02;18.00;44.50
8067;DHT22;4076;48.076;9.118;2023-04-27T12:05:28;18.20;44.30
8067;DHT22;4076;48.076;9.118;2023-04-27T12:07:53;18.50;44.10
8067;DHT22;4076;48.076;9.118;2023-04-27T12:10:19;18.60;43.20
8067;DHT22;4076;48.076;9.118;2023-04-27T12:12:45;18.60;42.70
8067;DHT22;4076;48.076;9.118;2023-04-27T12:15:10;18.80;42.90
8067;DHT22;4076;48.076;9.118;2023-04-27T12:17:37;18.70;42.80
8067;DHT22;4076;48.076;9.118;2023-04-27T12:20:04;18.60;43.10
8067;DHT22;4076;48.076;9.118;2023-04-27T12:22:30;18.50;43.00
8067;DHT22;4076;48.076;9.118;2023-04-27T12:24:55;18.50;43.60
8067;DHT22;4076;48.076;9.118;2023-04-27T12:27:22;18.50;44.20
8067;DHT22;4076;48.076;9.118;2023-04-27T12:29:47;18.50;43.30
8067;DHT22;4076;48.076;9.118;2023-04-27T12:32:13;18.40;44.20
8067;DHT22;4076;48.076;9.118;2023-04-27T12:34:38;18.20;44.00
8067;DHT22;4076;48.076;9.118;2023-04-27T12:37:04;17.80;43.30
8067;DHT22;4076;48.076;9.118;2023-04-27T12:39:31;17.70;43.90
8067;DHT22;4076;48.076;9.118;2023-04-27T12:41:56;17.70;44.00
8067;DHT22;4076;48.076;9.118;2023-04-27T12:44:26;17.70;43.30
8067;DHT22;4076;48.076;9.118;2023-04-27T12:46:52;17.70;43.30
8067;DHT22;4076;48.076;9.118;2023-04-27T12:49:17;17.50;43.60
8067;DHT22;4076;48.076;9.118;2023-04-27T12:51:43;17.40;44.70
8067;DHT22;4076;48.076;9.118;2023-04-27T12:54:10;17.50;44.30
8067;DHT22;4076;48.076;9.118;2023-04-27T12:56:37;17.40;44.60
8067;DHT22;4076;48.076;9.118;2023-04-27T12:59:02;17.40;44.60
8067;DHT22;4076;48.076;9.118;2023-04-27T13:01:28;17.30;44.40
8067;DHT22;4076;48.076;9.118;2023-04-27T13:04:02;17.40;44.50
8067;DHT22;4076;48.076;9.118;2023-04-27T13:06:29;17.40;44.50
8067;DHT22;4076;48.076;9.118;2023-04-27T13:08:56;17.60;45.10
8067;DHT22;4076;48.076;9.118;2023-04-27T13:11:23;17.70;44.10
8067;DHT22;4076;48.076;9.118;2023-04-27T13:13:49;17.50;44.10
8067;DHT22;4076;48.076;9.118;2023-04-27T13:16:15;17.50;44.70
8067;DHT22;4076;48.076;9.118;2023-04-27T13:18:41;17.50;44.80
8067;DHT22;4076;48.076;9.118;2023-04-27T13:21:12;17.40;45.00
8067;DHT22;4076;48.076;9.118;2023-04-27T13:23:37;17.40;45.00
8067;DHT22;4076;48.076;9.118;2023-04-27T13:26:03;17.30;44.80
8067;DHT22;4076;48.076;9.118;2023-04-27T13:28:31;17.30;45.00
8067;DHT22;4076;48.076;9.118;2023-04-27T13:30:56;17.20;45.30
8067;DHT22;4076;48.076;9.118;2023-04-27T13:33:22;17.20;45.20
8067;DHT22;4076;48.076;9.118;2023-04-27T13:35:49;17.30;45.80
8067;DHT22;4076;48.076;9.118;2023-04-27T13:38:15;17.20;45.60
8067;DHT22;4076;48.076;9.118;2023-04-27T13:40:41;17.20;45.30
8067;DHT22;4076;48.076;9.118;2023-04-27T13:43:06;17.30;45.60
8067;DHT22;4076;48.076;9.118;2023-04-27T13:45:32;17.30;45.70
8067;DHT22;4076;48.076;9.118;2023-04-27T13:47:58;17.20;45.30
8067;DHT22;4076;48.076;9.118;2023-04-27T13:50:23;17.20;45.30
8067;DHT22;4076;48.076;9.118;2023-04-27T13:52:49;17.30;45.70
8067;DHT22;4076;48.076;9.118;2023-04-27T13:55:14;17.40;45.60
8067;DHT22;4076;48.076;9.118;2023-04-27T13:57:40;17.50;45.70
8067;DHT22;4076;48.076;9.118;2023-04-27T14:00:06;17.70;45.40
8067;DHT22;4076;48.076;9.118;2023-04-27T14:02:33;17.90;44.90
8067;DHT22;4076;48.076;9.118;2023-04-27T14:04:58;18.00;44.80
8067;DHT22;4076;48.076;9.118;2023-04-27T14:07:24;17.90;44.70
8067;DHT22;4076;48.076;9.118;2023-04-27T14:09:49;17.80;44.90
8067;DHT22;4076;48.076;9.118;2023-04-27T14:12:15;17.70;44.30
8067;DHT22;4076;48.076;9.118;2023-04-27T14:14:41;17.70;44.70
8067;DHT22;4076;48.076;9.118;2023-04-27T14:17:06;17.60;45.10
8067;DHT22;4076;48.076;9.118;2023-04-27T14:19:32;17.50;44.80
8067;DHT22;4076;48.076;9.118;2023-04-27T14:21:59;17.60;44.80
8067;DHT22;4076;48.076;9.118;2023-04-27T14:24:25;17.60;44.70
8067;DHT22;4076;48.076;9.118;2023-04-27T14:26:51;17.50;44.60
8067;DHT22;4076;48.076;9.118;2023-04-27T14:29:17;17.50;45.00
8067;DHT22;4076;48.076;9.118;2023-04-27T14:31:44;17.50;45.00
8067;DHT22;4076;48.076;9.118;2023-04-27T14:34:11;17.60;45.30
8067;DHT22;4076;48.076;9.118;2023-04-27T14:36:38;17.80;45.40
8067;DHT22;4076;48.076;9.118;2023-04-27T14:39:04;18.30;45.30
8067;DHT22;4076;48.076;9.118;2023-04-27T14:41:31;18.50;44.40
8067;DHT22;4076;48.076;9.118;2023-04-27T14:43:57;18.60;44.40
8067;DHT22;4076;48.076;9.118;2023-04-27T14:46:22;18.50;44.20
8067;DHT22;4076;48.076;9.118;2023-04-27T14:48:48;18.50;44.70
8067;DHT22;4076;48.076;9.118;2023-04-27T14:51:14;18.40;45.40
8067;DHT22;4076;48.076;9.118;2023-04-27T14:53:40;18.40;44.40
8067;DHT22;4076;48.076;9.118;2023-04-27T14:56:07;18.40;44.30
8067;DHT22;4076;48.076;9.118;2023-04-27T14:58:32;18.20;44.20
8067;DHT22;4076;48.076;9.118;2023-04-27T15:01:01;18.00;44.70
8067;DHT22;4076;48.076;9.118;2023-04-27T15:03:28;18.00;44.70
8067;DHT22;4076;48.076;9.118;2023-04-27T15:05:54;17.80;44.90
8067;DHT22;4076;48.076;9.118;2023-04-27T15:08:20;17.60;44.80
8067;DHT22;4076;48.076;9.118;2023-04-27T15:10:46;17.50;45.30
8067;DHT22;4076;48.076;9.118;2023-04-27T15:13:11;17.30;45.40
8067;DHT22;4076;48.076;9.118;2023-04-27T15:15:37;17.30;45.90
8067;DHT22;4076;48.076;9.118;2023-04-27T15:18:03;17.30;45.10
8067;DHT22;4076;48.076;9.118;2023-04-27T15:20:28;17.30;45.00
8067;DHT22;4076;48.076;9.118;2023-04-27T15:22:54;17.20;45.20
8067;DHT22;4076;48.076;9.118;2023-04-27T15:25:21;17.10;45.30
8067;DHT22;4076;48.076;9.118;2023-04-27T15:27:46;17.10;45.40
8067;DHT22;4076;48.076;9.118;2023-04-27T15:30:13;17.00;45.90
8067;DHT22;4076;48.076;9.118;2023-04-27T15:32:38;16.90;45.80
8067;DHT22;4076;48.076;9.118;2023-04-27T15:35:05;16.90;45.70
8067;DHT22;4076;48.076;9.118;2023-04-27T15:37:33;16.80;45.80
8067;DHT22;4076;48.076;9.118;2023-04-27T15:39:59;16.80;45.80
8067;DHT22;4076;48.076;9.118;2023-04-27T15:42:25;16.70;46.10
8067;DHT22;4076;48.076;9.118;2023-04-27T15:44:50;16.70;46.50
8067;DHT22;4076;48.076;9.118;2023-04-27T15:47:16;16.60;46.60
8067;DHT22;4076;48.076;9.118;2023-04-27T15:49:42;16.60;46.80
8067;DHT22;4076;48.076;9.118;2023-04-27T15:52:07;16.60;46.30
8067;DHT22;4076;48.076;9.118;2023-04-27T15:54:33;16.70;46.10
8067;DHT22;4076;48.076;9.118;2023-04-27T15:56:59;16.80;46.50
8067;DHT22;4076;48.076;9.118;2023-04-27T15:59:31;16.80;46.80
8067;DHT22;4076;48.076;9.118;2023-04-27T16:01:57;16.80;46.70
8067;DHT22;4076;48.076;9.118;2023-04-27T16:04:22;16.80;47.00
8067;DHT22;4076;48.076;9.118;2023-04-27T16:06:48;16.80;47.30
8067;DHT22;4076;48.076;9.118;2023-04-27T16:09:14;16.80;47.40
8067;DHT22;4076;48.076;9.118;2023-04-27T16:11:40;16.70;48.00
8067;DHT22;4076;48.076;9.118;2023-04-27T16:14:07;16.70;48.10
8067;DHT22;4076;48.076;9.118;2023-04-27T16:16:32;16.70;48.40
8067;DHT22;4076;48.076;9.118;2023-04-27T16:18:58;16.50;48.60
8067;DHT22;4076;48.076;9.118;2023-04-27T16:21:25;16.50;48.60